createdAt,value
2017-09-28T00:01:14.531Z,33.00
2017-09-28T00:03:42.013Z,32.63
2017-09-28T00:06:10.255Z,35.70
2017-09-28T00:08:37.738Z,34.50
2017-09-28T00:11:05.971Z,34.03
2017-09-28T00:13:33.547Z,38.07
2017-09-28T00:16:02.551Z,37.27
2017-09-28T00:18:30.023Z,36.47
2017-09-28T00:20:58.292Z,35.37
2017-09-28T00:23:25.771Z,38.20
2017-09-28T00:25:54.012Z,36.30
2017-09-28T00:28:21.496Z,34.30
2017-09-28T00:30:49.735Z,34.60
2017-09-28T00:33:17.315Z,34.77
2017-09-28T00:35:44.872Z,35.33
2017-09-28T00:38:12.359Z,29.90
2017-09-28T00:40:40.591Z,35.10
2017-09-28T00:43:08.072Z,35.47
2017-09-28T00:45:35.543Z,34.43
2017-09-28T00:48:03.796Z,33.90
2017-09-28T00:50:31.356Z,35.50
2017-09-28T00:53:00.334Z,36.43
2017-09-28T00:55:27.816Z,33.80
2017-09-28T00:57:55.305Z,35.43
2017-09-28T01:00:23.537Z,34.70
2017-09-28T01:02:51.102Z,35.13
2017-09-28T01:05:20.100Z,35.77
2017-09-28T01:07:48.383Z,33.33
2017-09-28T01:10:15.848Z,33.30
2017-09-28T01:12:43.319Z,31.63
2017-09-28T01:15:11.563Z,34.20
2017-09-28T01:17:39.124Z,31.00
2017-09-28T01:20:06.602Z,30.60
2017-09-28T01:22:34.151Z,32.30
2017-09-28T01:25:01.626Z,32.60
2017-09-28T01:27:29.095Z,32.87
2017-09-28T01:29:57.347Z,35.10
2017-09-28T01:32:26.320Z,30.57
2017-09-28T01:34:53.802Z,34.10
2017-09-28T01:37:22.777Z,32.30
2017-09-28T01:39:50.259Z,33.90
2017-09-28T01:42:17.727Z,31.57
2017-09-28T01:44:45.979Z,29.47
2017-09-28T01:47:13.480Z,26.80
2017-09-28T01:49:41.006Z,30.17
2017-09-28T01:52:08.472Z,27.30
2017-09-28T01:54:35.952Z,29.87
2017-09-28T01:57:04.179Z,30.10
2017-09-28T01:59:31.659Z,30.20
2017-09-28T02:01:59.123Z,33.10
2017-09-28T02:04:26.671Z,33.00
2017-09-28T02:06:54.967Z,33.17
2017-09-28T02:09:23.215Z,32.93
2017-09-28T02:11:50.787Z,32.27
2017-09-28T02:14:20.063Z,29.27
2017-09-28T02:16:47.536Z,29.63
2017-09-28T02:19:15.016Z,27.57
2017-09-28T02:21:42.569Z,28.20
2017-09-28T02:24:10.069Z,29.20
2017-09-28T02:26:37.550Z,30.07
2017-09-28T02:29:05.042Z,31.30
2017-09-28T02:31:32.523Z,34.70
2017-09-28T02:34:00.759Z,31.60
2017-09-28T02:36:28.339Z,33.50
2017-09-28T02:38:56.615Z,34.37
2017-09-28T02:41:24.092Z,34.33
2017-09-28T02:43:52.334Z,36.70
2017-09-28T02:46:19.910Z,33.10
2017-09-28T02:48:48.156Z,35.90
2017-09-28T02:51:15.636Z,37.60
2017-09-28T02:53:43.209Z,36.00
2017-09-28T02:56:10.694Z,36.97
2017-09-28T02:58:38.944Z,37.57
2017-09-28T03:01:07.933Z,37.30
2017-09-28T03:03:35.403Z,40.27
2017-09-28T03:06:02.957Z,39.57
2017-09-28T03:08:31.955Z,42.87
2017-09-28T03:10:59.515Z,37.23
2017-09-28T03:13:27.067Z,37.97
2017-09-28T03:15:55.312Z,40.67
2017-09-28T03:18:22.786Z,40.60
2017-09-28T03:20:50.263Z,38.60
2017-09-28T03:23:17.735Z,41.50
2017-09-28T03:25:45.995Z,37.83
2017-09-28T03:28:14.972Z,34.87
2017-09-28T03:30:42.438Z,39.50
2017-09-28T03:33:09.939Z,37.53
2017-09-28T03:35:38.185Z,44.70
2017-09-28T03:38:05.753Z,40.23
2017-09-28T03:40:34.024Z,36.50
2017-09-28T03:43:03.009Z,36.47
2017-09-28T03:45:30.477Z,35.43
2017-09-28T03:47:57.965Z,34.60
2017-09-28T03:50:26.204Z,32.40
2017-09-28T03:52:53.685Z,35.03
2017-09-28T03:55:21.925Z,37.23
2017-09-28T03:57:49.399Z,36.83
2017-09-28T04:00:17.639Z,35.30
2017-09-28T04:02:45.139Z,36.50
2017-09-28T04:05:12.622Z,36.87
2017-09-28T04:07:40.868Z,32.07
2017-09-28T04:10:09.108Z,34.67
2017-09-28T04:12:36.707Z,36.37
2017-09-28T04:15:04.176Z,35.20
2017-09-28T04:17:31.656Z,35.33
2017-09-28T04:19:59.899Z,33.57
2017-09-28T04:22:27.376Z,34.03
2017-09-28T04:24:55.637Z,33.40
2017-09-28T04:27:23.883Z,31.50
2017-09-28T04:29:51.484Z,31.90
2017-09-28T04:32:19.141Z,37.03
2017-09-28T04:34:46.615Z,33.63
2017-09-28T04:37:14.869Z,34.07
2017-09-28T04:39:43.857Z,34.10
2017-09-28T04:42:11.428Z,30.13
2017-09-28T04:44:38.928Z,32.37
2017-09-28T04:47:06.400Z,29.93
2017-09-28T04:49:33.905Z,31.77
2017-09-28T04:52:01.460Z,29.20
2017-09-28T04:54:29.764Z,32.63
2017-09-28T04:56:58.003Z,32.47
2017-09-28T04:59:25.491Z,32.97
2017-09-28T05:01:53.724Z,31.00
2017-09-28T05:04:21.203Z,35.00
2017-09-28T05:06:48.668Z,32.97
2017-09-28T05:09:16.924Z,32.23
2017-09-28T05:11:44.403Z,31.70
2017-09-28T05:14:11.965Z,29.13
2017-09-28T05:16:40.243Z,30.23
2017-09-28T05:19:07.807Z,32.07
2017-09-28T05:21:35.276Z,31.70
2017-09-28T05:24:03.533Z,30.50
2017-09-28T05:26:31.004Z,29.17
2017-09-28T05:28:59.272Z,31.20
2017-09-28T05:31:26.748Z,29.17
2017-09-28T05:33:55.016Z,28.50
2017-09-28T05:36:22.490Z,27.23
2017-09-28T05:38:50.044Z,27.90
2017-09-28T05:41:18.289Z,28.80
2017-09-28T05:43:45.768Z,29.40
2017-09-28T05:46:13.244Z,30.93
2017-09-28T05:48:41.493Z,29.40
2017-09-28T05:51:08.976Z,30.93
2017-09-28T05:53:37.216Z,29.07
2017-09-28T05:56:04.697Z,32.93
2017-09-28T05:58:32.165Z,31.30
2017-09-28T06:01:00.404Z,30.50
2017-09-28T06:03:28.149Z,32.40
2017-09-28T06:05:55.639Z,31.80
2017-09-28T06:08:23.109Z,32.63
2017-09-28T06:10:50.668Z,34.70
2017-09-28T06:13:18.132Z,32.40
2017-09-28T06:15:45.683Z,30.87
2017-09-28T06:18:13.244Z,32.43
2017-09-28T06:20:40.807Z,34.13
2017-09-28T06:23:09.039Z,35.20
2017-09-28T06:25:36.536Z,29.70
2017-09-28T06:28:05.521Z,28.50
2017-09-28T06:30:33.000Z,29.83
2017-09-28T06:33:00.556Z,29.40
2017-09-28T06:35:28.116Z,28.20
2017-09-28T06:37:55.593Z,28.20
2017-09-28T06:40:23.845Z,29.80
2017-09-28T06:42:51.403Z,29.03
2017-09-28T06:45:18.888Z,29.10
2017-09-28T06:47:47.132Z,28.97
2017-09-28T06:50:14.600Z,29.40
2017-09-28T06:52:42.849Z,28.50
2017-09-28T06:55:10.328Z,30.43
2017-09-28T06:57:37.813Z,30.27
2017-09-28T07:00:06.072Z,28.93
2017-09-28T07:02:33.620Z,29.60
2017-09-28T07:05:01.091Z,27.57
2017-09-28T07:07:28.572Z,26.33
2017-09-28T07:09:56.819Z,27.80
2017-09-28T07:12:25.073Z,26.90
2017-09-28T07:14:52.543Z,27.30
2017-09-28T07:17:20.022Z,28.30
2017-09-28T07:19:48.296Z,29.33
2017-09-28T07:22:15.775Z,27.67
2017-09-28T07:24:44.021Z,27.60
2017-09-28T07:27:11.509Z,27.60
2017-09-28T07:29:39.758Z,30.20
2017-09-28T07:32:08.757Z,36.43
2017-09-28T07:34:36.232Z,34.87
2017-09-28T07:37:04.500Z,36.83
2017-09-28T07:39:32.741Z,38.03
2017-09-28T07:42:00.221Z,37.53
2017-09-28T07:44:27.788Z,36.37
2017-09-28T07:46:55.353Z,35.50
2017-09-28T07:49:22.826Z,37.50
2017-09-28T07:51:51.080Z,37.90
2017-09-28T07:54:20.065Z,36.37
2017-09-28T07:56:47.639Z,36.27
2017-09-28T07:59:15.219Z,37.57
2017-09-28T08:01:43.464Z,36.97
2017-09-28T08:04:10.932Z,35.33
2017-09-28T08:06:39.266Z,37.40
2017-09-28T08:09:06.743Z,33.47
2017-09-28T08:11:34.224Z,36.40
2017-09-28T08:14:02.504Z,34.47
2017-09-28T08:16:29.991Z,35.63
2017-09-28T08:18:58.243Z,35.40
2017-09-28T08:21:25.728Z,35.20
2017-09-28T08:23:53.965Z,36.03
2017-09-28T08:26:21.541Z,37.30
2017-09-28T08:28:49.100Z,38.20
2017-09-28T08:31:16.664Z,38.90
2017-09-28T08:33:44.144Z,39.57
2017-09-28T08:36:12.382Z,40.40
2017-09-28T08:38:39.856Z,43.30
2017-09-28T08:41:08.835Z,45.73
2017-09-28T08:43:36.318Z,47.87
2017-09-28T08:46:04.585Z,47.33
2017-09-28T08:48:32.059Z,44.40
2017-09-28T08:53:34.180Z,45.50
2017-09-28T08:56:01.672Z,47.33
2017-09-28T08:58:29.282Z,48.33
2017-09-28T09:00:56.807Z,48.20
2017-09-28T09:03:24.293Z,49.00
2017-09-28T09:05:52.548Z,47.77
2017-09-28T09:08:20.109Z,46.17
2017-09-28T09:10:47.661Z,47.70
2017-09-28T09:13:15.157Z,46.80
2017-09-28T09:15:43.384Z,49.30
2017-09-28T09:18:10.947Z,52.27
2017-09-28T09:20:39.949Z,53.10
2017-09-28T09:23:07.436Z,50.07
2017-09-28T09:25:35.669Z,46.97
2017-09-28T09:28:03.169Z,49.10
2017-09-28T09:30:31.405Z,49.33
2017-09-28T09:32:58.883Z,48.77
2017-09-28T09:35:26.541Z,51.77
2017-09-28T09:37:54.019Z,51.00
2017-09-28T09:40:22.274Z,51.00
2017-09-28T09:42:49.749Z,51.47
2017-09-28T09:45:17.300Z,50.30
2017-09-28T09:47:45.539Z,48.97
2017-09-28T09:50:13.016Z,47.67
2017-09-28T09:52:40.592Z,48.53
2017-09-28T09:55:08.145Z,46.47
2017-09-28T09:57:35.623Z,46.70
2017-09-28T10:00:03.884Z,48.37
2017-09-28T10:02:31.398Z,45.63
2017-09-28T10:04:58.876Z,44.87
2017-09-28T10:07:30.595Z,44.53
2017-09-28T10:10:04.729Z,44.93
2017-09-28T10:12:35.381Z,43.90
2017-09-28T10:15:07.492Z,44.60
2017-09-28T10:17:36.021Z,41.93
2017-09-28T10:20:03.504Z,42.23
2017-09-28T10:22:30.968Z,42.50
2017-09-28T10:24:58.443Z,44.37
2017-09-28T10:27:25.925Z,43.70
2017-09-28T10:29:54.945Z,43.73
2017-09-28T10:32:22.432Z,45.77
2017-09-28T10:34:49.917Z,46.70
2017-09-28T10:37:17.388Z,45.47
2017-09-28T10:39:45.620Z,49.57
2017-09-28T10:42:13.095Z,50.10
2017-09-28T10:44:40.571Z,47.83
2017-09-28T10:47:08.051Z,47.93
2017-09-28T10:49:36.283Z,47.20
2017-09-28T10:52:03.761Z,46.67
2017-09-28T10:54:31.227Z,47.57
2017-09-28T10:56:59.473Z,48.73
2017-09-28T10:59:26.948Z,47.40
2017-09-28T11:01:54.435Z,45.40
2017-09-28T11:04:21.907Z,49.70
2017-09-28T11:06:49.379Z,49.30
2017-09-28T11:09:16.857Z,46.70
2017-09-28T11:11:44.344Z,50.40
2017-09-28T11:14:11.803Z,48.23
2017-09-28T11:16:39.288Z,47.70
2017-09-28T11:19:06.764Z,49.73
2017-09-28T11:21:34.250Z,46.63
2017-09-28T11:24:01.716Z,51.70
2017-09-28T11:26:29.200Z,48.47
2017-09-28T11:28:56.667Z,50.67
2017-09-28T11:31:24.916Z,49.80
2017-09-28T11:33:52.392Z,47.87
2017-09-28T11:36:19.901Z,47.20
2017-09-28T11:38:47.391Z,47.77
2017-09-28T11:41:14.876Z,45.47
2017-09-28T11:43:43.114Z,48.07
2017-09-28T11:46:10.609Z,48.00
2017-09-28T11:48:38.071Z,49.97
2017-09-28T11:51:05.567Z,50.50
2017-09-28T11:53:33.054Z,48.30
2017-09-28T11:56:00.532Z,48.53
2017-09-28T11:58:28.024Z,50.07
2017-09-28T12:00:56.269Z,48.27
2017-09-28T12:03:23.735Z,49.90
2017-09-28T12:05:51.996Z,50.10
2017-09-28T12:08:19.472Z,50.20
2017-09-28T12:10:47.712Z,51.67
2017-09-28T12:13:15.196Z,51.00
2017-09-28T12:15:42.663Z,47.83
2017-09-28T12:18:10.919Z,48.80
2017-09-28T12:20:38.495Z,50.20
2017-09-28T12:23:05.981Z,52.23
2017-09-28T12:25:34.223Z,49.07
2017-09-28T12:28:01.712Z,49.33
2017-09-28T12:30:29.944Z,50.40
2017-09-28T12:32:58.615Z,45.47
2017-09-28T12:35:26.116Z,46.20
2017-09-28T12:37:53.622Z,48.73
2017-09-28T12:40:21.109Z,44.60
2017-09-28T12:42:48.602Z,44.00
2017-09-28T12:45:16.861Z,43.57
2017-09-28T12:47:44.349Z,41.57
2017-09-28T12:50:12.587Z,44.30
2017-09-28T12:52:40.915Z,43.73
2017-09-28T12:55:08.421Z,44.70
2017-09-28T12:57:35.888Z,42.97
2017-09-28T13:00:03.397Z,42.30
2017-09-28T13:02:30.867Z,43.93
2017-09-28T13:04:58.347Z,42.60
2017-09-28T13:07:25.821Z,45.07
2017-09-28T13:09:53.291Z,46.60
2017-09-28T13:12:20.768Z,42.50
2017-09-28T13:14:48.259Z,41.40
2017-09-28T13:17:15.732Z,42.00
2017-09-28T13:19:43.220Z,42.80
2017-09-28T13:22:10.696Z,41.47
2017-09-28T13:24:38.944Z,39.90
2017-09-28T13:27:06.414Z,38.67
2017-09-28T13:29:33.884Z,38.57
2017-09-28T13:32:02.133Z,39.00
2017-09-28T13:34:29.601Z,38.83
2017-09-28T13:36:57.087Z,39.70
2017-09-28T13:39:25.324Z,36.77
2017-09-28T13:41:52.802Z,40.70
2017-09-28T13:44:20.272Z,36.63
2017-09-28T13:46:48.516Z,41.80
2017-09-28T13:49:15.994Z,40.67
2017-09-28T13:51:43.481Z,37.80
2017-09-28T13:54:11.720Z,37.73
2017-09-28T13:56:39.209Z,37.93
2017-09-28T13:59:07.448Z,38.57
2017-09-28T14:01:34.944Z,37.20
2017-09-28T14:04:03.176Z,34.33
2017-09-28T14:06:30.660Z,34.97
2017-09-28T14:08:58.123Z,34.70
2017-09-28T14:11:25.617Z,35.30
2017-09-28T14:13:53.075Z,39.27
2017-09-28T14:16:20.557Z,36.50
2017-09-28T14:18:48.035Z,35.23
2017-09-28T14:21:15.544Z,33.20
2017-09-28T14:23:43.776Z,35.43
2017-09-28T14:26:11.251Z,35.30
2017-09-28T14:28:38.716Z,36.33
2017-09-28T14:31:07.012Z,36.60
2017-09-28T14:33:34.460Z,35.30
2017-09-28T14:36:02.702Z,35.90
2017-09-28T14:38:30.173Z,37.13
2017-09-28T14:40:57.663Z,38.70
2017-09-28T14:43:25.149Z,35.20
2017-09-28T14:45:52.633Z,38.33
2017-09-28T14:48:20.108Z,38.13
2017-09-28T14:50:47.591Z,39.67
2017-09-28T14:53:15.827Z,39.30
2017-09-28T14:55:43.309Z,39.77
2017-09-28T14:58:10.793Z,41.60
2017-09-28T15:00:39.033Z,40.73
2017-09-28T15:03:06.564Z,40.90
2017-09-28T15:05:34.024Z,43.93
2017-09-28T15:08:01.501Z,37.77
2017-09-28T15:10:28.976Z,37.23
2017-09-28T15:12:56.459Z,38.60
2017-09-28T15:15:24.700Z,42.13
2017-09-28T15:17:52.180Z,40.87
2017-09-28T15:20:20.420Z,42.83
2017-09-28T15:22:47.906Z,41.47
2017-09-28T15:25:15.465Z,41.10
2017-09-28T15:27:42.957Z,39.60
2017-09-28T15:30:10.478Z,38.57
2017-09-28T15:32:37.952Z,44.30
2017-09-28T15:35:05.432Z,43.03
2017-09-28T15:37:32.900Z,42.80
2017-09-28T15:40:00.379Z,45.27
2017-09-28T15:42:27.856Z,42.50
2017-09-28T15:44:55.340Z,42.83
2017-09-28T15:47:22.817Z,44.92
2017-09-28T15:49:51.272Z,47.90
2017-09-28T15:52:18.751Z,41.63
2017-09-28T15:54:46.992Z,45.80
2017-09-28T15:57:14.472Z,48.40
2017-09-28T15:59:41.948Z,46.87
2017-09-28T16:02:10.188Z,49.60
2017-09-28T16:04:37.666Z,49.67
2017-09-28T16:07:05.127Z,48.57
2017-09-28T16:09:38.939Z,51.80
2017-09-28T16:12:06.744Z,50.23
2017-09-28T16:14:34.217Z,49.60
2017-09-28T16:17:01.685Z,47.30
2017-09-28T16:19:29.168Z,51.60
2017-09-28T16:21:56.659Z,52.63
2017-09-28T16:24:24.145Z,52.00
2017-09-28T16:26:51.621Z,53.50
2017-09-28T16:29:19.105Z,54.80
2017-09-28T16:31:46.572Z,52.60
2017-09-28T16:34:14.839Z,55.73
2017-09-28T16:36:42.310Z,51.90
2017-09-28T16:39:10.543Z,51.63
2017-09-28T16:41:38.017Z,55.07
2017-09-28T16:44:05.494Z,54.10
2017-09-28T16:46:32.969Z,50.97
2017-09-28T16:49:01.209Z,54.10
2017-09-28T16:51:28.679Z,56.80
2017-09-28T16:53:56.156Z,56.90
2017-09-28T16:56:24.401Z,58.13
2017-09-28T17:01:25.780Z,51.40
2017-09-28T17:03:53.258Z,53.83
2017-09-28T17:06:21.521Z,55.40
2017-09-28T17:08:49.000Z,52.87
2017-09-28T17:11:17.249Z,54.67
2017-09-28T17:13:44.727Z,54.97
2017-09-28T17:16:12.207Z,48.47
2017-09-28T17:18:40.439Z,54.53
2017-09-28T17:21:07.921Z,51.60
2017-09-28T17:23:36.163Z,51.17
2017-09-28T17:26:03.637Z,50.40
2017-09-28T17:28:31.107Z,50.00
2017-09-28T17:30:58.592Z,53.03
2017-09-28T17:33:26.065Z,50.20
2017-09-28T17:35:53.541Z,53.33
2017-09-28T17:38:21.027Z,49.67
2017-09-28T17:40:48.497Z,47.83
2017-09-28T17:43:15.981Z,49.60
2017-09-28T17:45:44.216Z,47.30
2017-09-28T17:48:11.696Z,45.40
2017-09-28T17:50:39.176Z,46.07
2017-09-28T17:53:07.426Z,45.50
2017-09-28T17:55:34.888Z,44.27
2017-09-28T17:58:02.372Z,42.67
2017-09-28T18:00:29.857Z,44.20
2017-09-28T18:02:57.356Z,46.73
2017-09-28T18:05:24.828Z,44.13
2017-09-28T18:07:53.071Z,45.67
2017-09-28T18:10:20.556Z,44.60
2017-09-28T18:12:48.031Z,45.07
2017-09-28T18:15:16.264Z,45.07
2017-09-28T18:17:43.756Z,42.80
2017-09-28T18:20:12.822Z,44.20
2017-09-28T18:22:40.297Z,44.20
2017-09-28T18:25:07.764Z,41.37
2017-09-28T18:27:35.245Z,42.07
2017-09-28T18:30:03.509Z,45.13
2017-09-28T18:32:31.863Z,43.60
2017-09-28T18:34:59.349Z,41.40
2017-09-28T18:37:27.589Z,40.50
2017-09-28T18:39:55.077Z,48.40
2017-09-28T18:42:22.573Z,48.97
2017-09-28T18:44:50.070Z,48.63
2017-09-28T18:47:17.544Z,49.03
2017-09-28T18:49:45.037Z,45.70
2017-09-28T18:52:12.520Z,49.03
2017-09-28T18:54:40.007Z,49.20
2017-09-28T18:57:08.275Z,45.57
2017-09-28T18:59:35.756Z,49.80
2017-09-28T19:02:03.247Z,56.57
2017-09-28T19:04:30.773Z,48.30
2017-09-28T19:06:58.241Z,48.00
2017-09-28T19:09:26.488Z,49.30
2017-09-28T19:11:53.964Z,50.93
2017-09-28T19:14:21.447Z,49.50
2017-09-28T19:16:49.693Z,46.70
2017-09-28T19:19:17.181Z,51.40
2017-09-28T19:21:45.769Z,47.80
2017-09-28T19:24:14.019Z,53.50
2017-09-28T19:26:41.612Z,49.00
2017-09-28T19:29:09.060Z,47.53
2017-09-28T19:31:37.296Z,49.43
2017-09-28T19:34:04.884Z,48.70
2017-09-28T19:36:33.137Z,50.07
2017-09-28T19:39:00.712Z,47.50
2017-09-28T19:41:28.196Z,44.87
2017-09-28T19:43:56.436Z,48.17
2017-09-28T19:46:24.003Z,46.00
2017-09-28T19:48:52.287Z,47.00
2017-09-28T19:51:19.859Z,41.50
2017-09-28T19:53:47.342Z,45.80
2017-09-28T19:56:14.820Z,50.60
2017-09-28T19:58:42.324Z,48.67
2017-09-28T20:01:09.817Z,50.43
2017-09-28T20:03:38.048Z,50.00
2017-09-28T20:06:06.337Z,46.57
2017-09-28T20:08:33.905Z,46.80
2017-09-28T20:11:01.464Z,47.00
2017-09-28T20:13:29.011Z,44.97
2017-09-28T20:15:56.584Z,48.33
2017-09-28T20:18:24.152Z,49.77
2017-09-28T20:20:51.629Z,46.50
2017-09-28T20:23:19.861Z,44.90
2017-09-28T20:25:47.444Z,39.93
2017-09-28T20:28:14.905Z,38.70
2017-09-28T20:30:43.160Z,44.43
2017-09-28T20:33:10.637Z,42.43
2017-09-28T20:35:38.904Z,40.30
2017-09-28T20:38:07.896Z,43.17
2017-09-28T20:40:35.466Z,43.60
2017-09-28T20:43:03.012Z,43.13
2017-09-28T20:45:30.580Z,42.53
2017-09-28T20:47:58.140Z,41.23
2017-09-28T20:50:25.700Z,41.90
2017-09-28T20:52:53.176Z,40.87
2017-09-28T20:55:21.419Z,40.90
2017-09-28T20:57:48.996Z,40.63
2017-09-28T21:00:16.488Z,39.40
2017-09-28T21:02:44.736Z,37.63
2017-09-28T21:05:12.300Z,38.03
2017-09-28T21:07:39.858Z,39.90
2017-09-28T21:10:08.133Z,41.30
2017-09-28T21:12:35.601Z,38.83
2017-09-28T21:15:03.872Z,39.57
2017-09-28T21:17:31.339Z,42.10
2017-09-28T21:19:59.604Z,40.10
2017-09-28T21:22:27.160Z,43.40
2017-09-28T21:24:54.737Z,43.20
2017-09-28T21:27:22.244Z,40.43
2017-09-28T21:29:49.741Z,44.53
2017-09-28T21:32:17.996Z,43.47
2017-09-28T21:34:45.474Z,41.33
2017-09-28T21:37:13.048Z,44.93
2017-09-28T21:39:40.607Z,45.37
2017-09-28T21:42:08.871Z,42.20
2017-09-28T21:44:36.436Z,44.10
2017-09-28T21:47:03.918Z,46.50
2017-09-28T21:49:32.160Z,44.20
2017-09-28T21:51:59.737Z,45.10
2017-09-28T21:54:27.976Z,44.47
2017-09-28T21:56:55.456Z,42.17
2017-09-28T21:59:22.925Z,41.90
2017-09-28T22:01:50.404Z,41.87
2017-09-28T22:04:18.656Z,36.57
2017-09-28T22:06:46.216Z,35.47
2017-09-28T22:09:13.780Z,34.03
2017-09-28T22:11:41.272Z,35.10
2017-09-28T22:14:08.752Z,34.70
2017-09-28T22:16:36.246Z,37.33
2017-09-28T22:19:03.713Z,33.50
2017-09-28T22:21:31.205Z,33.80
2017-09-28T22:23:59.547Z,31.03
2017-09-28T22:26:27.015Z,33.93
2017-09-28T22:28:54.500Z,33.73
2017-09-28T22:31:21.972Z,31.73
2017-09-28T22:33:49.448Z,31.97
2017-09-28T22:36:16.930Z,32.60
2017-09-28T22:38:45.192Z,33.13
2017-09-28T22:41:12.700Z,35.80
2017-09-28T22:43:40.952Z,31.90
2017-09-28T22:46:08.430Z,31.20
2017-09-28T22:48:36.679Z,33.03
2017-09-28T22:51:04.156Z,31.37
2017-09-28T22:53:31.627Z,30.50
2017-09-28T22:55:59.869Z,31.20
2017-09-28T22:58:27.353Z,30.17
2017-09-28T23:00:54.820Z,30.00
2017-09-28T23:03:23.072Z,29.90
2017-09-28T23:05:50.571Z,29.43
2017-09-28T23:08:18.816Z,29.80
2017-09-28T23:10:46.284Z,29.97
2017-09-28T23:13:14.536Z,28.60
2017-09-28T23:15:42.008Z,29.93
2017-09-28T23:18:09.483Z,27.07
2017-09-28T23:20:37.717Z,27.17
2017-09-28T23:23:05.228Z,25.77
2017-09-28T23:25:33.465Z,28.60
2017-09-28T23:28:01.207Z,26.83
2017-09-28T23:30:28.675Z,27.33
2017-09-28T23:32:56.260Z,28.70
2017-09-28T23:35:24.522Z,28.87
2017-09-28T23:37:52.001Z,27.23
2017-09-28T23:40:19.487Z,28.00
2017-09-28T23:42:47.716Z,26.23
2017-09-28T23:45:15.321Z,26.63
2017-09-28T23:47:43.572Z,30.70
2017-09-28T23:50:11.068Z,26.07
2017-09-28T23:52:38.592Z,28.60
2017-09-28T23:55:06.097Z,26.37
2017-09-28T23:57:33.572Z,26.63
